createdAt,value
2023-08-12T00:00:12.178Z,17.39
2023-08-12T00:02:42.716Z,17.26
2023-08-12T00:05:11.901Z,17.32
2023-08-12T00:07:38.453Z,17.23
2023-08-12T00:10:06.051Z,17.29
2023-08-12T00:12:33.043Z,17.19
2023-08-12T00:15:00.162Z,17.17
2023-08-12T00:17:26.669Z,17.16
2023-08-12T00:19:53.292Z,17.35
2023-08-12T00:22:19.922Z,17.45
2023-08-12T00:24:46.517Z,17.45
2023-08-12T00:27:13.260Z,17.41
2023-08-12T00:29:40.223Z,17.22
2023-08-12T00:32:06.995Z,17.33
2023-08-12T00:34:33.455Z,17.24
2023-08-12T00:36:59.897Z,17.43
2023-08-12T00:39:26.378Z,17.33
2023-08-12T00:41:52.906Z,17.27
2023-08-12T00:44:19.501Z,17.27
2023-08-12T00:46:46.187Z,17.22
2023-08-12T00:49:13.881Z,17.26
2023-08-12T00:51:45.527Z,17.22
2023-08-12T00:54:15.505Z,17.27
2023-08-12T00:56:42.827Z,17.25
2023-08-12T00:59:11.308Z,17.53
2023-08-12T01:01:42.593Z,17.58
2023-08-12T01:04:09.194Z,17.43
2023-08-12T01:06:36.598Z,17.57
2023-08-12T01:09:06.157Z,17.53
2023-08-12T01:12:10.181Z,17.61
2023-08-12T01:14:48.856Z,17.55
2023-08-12T01:17:16.677Z,17.65
2023-08-12T01:19:44.060Z,17.57
2023-08-12T01:22:12.646Z,17.82
2023-08-12T01:24:40.891Z,17.77
2023-08-12T01:27:09.334Z,17.86
2023-08-12T01:29:42.505Z,17.97
2023-08-12T01:32:38.341Z,17.91
2023-08-12T01:35:12.869Z,18.05
2023-08-12T01:37:40.362Z,17.95
2023-08-12T01:40:10.198Z,17.92
2023-08-12T01:42:40.979Z,17.65
2023-08-12T01:45:08.088Z,17.84
2023-08-12T01:47:34.663Z,17.76
2023-08-12T01:50:01.217Z,17.82
2023-08-12T01:52:27.745Z,17.95
2023-08-12T01:54:54.181Z,18.05
2023-08-12T01:57:20.693Z,18.14
2023-08-12T01:59:47.339Z,17.84
2023-08-12T02:02:14.230Z,18.11
2023-08-12T02:04:43.454Z,18.01
2023-08-12T02:07:10.190Z,18.07
2023-08-12T02:09:36.922Z,17.93
2023-08-12T02:12:03.557Z,18.02
2023-08-12T02:14:30.047Z,18.10
2023-08-12T02:16:56.484Z,18.26
2023-08-12T02:19:22.951Z,18.23
2023-08-12T02:21:49.478Z,18.35
2023-08-12T02:24:15.891Z,18.41
2023-08-12T02:26:42.285Z,18.40
2023-08-12T02:29:08.724Z,18.30
2023-08-12T02:31:35.233Z,18.33
2023-08-12T02:34:01.684Z,18.36
2023-08-12T02:36:28.155Z,18.27
2023-08-12T02:38:54.558Z,18.29
2023-08-12T02:41:20.963Z,18.33
2023-08-12T02:43:47.427Z,18.60
2023-08-12T02:46:16.319Z,18.77
2023-08-12T02:48:45.714Z,18.58
2023-08-12T02:51:12.214Z,18.82
2023-08-12T02:53:38.590Z,19.07
2023-08-12T02:56:05.086Z,19.14
2023-08-12T02:58:31.614Z,19.14
2023-08-12T03:00:58.314Z,19.29
2023-08-12T03:03:24.792Z,19.49
2023-08-12T03:05:51.232Z,19.49
2023-08-12T03:08:17.657Z,19.57
2023-08-12T03:10:45.971Z,19.44
2023-08-12T03:13:12.527Z,19.28
2023-08-12T03:15:43.043Z,19.38
2023-08-12T03:18:09.469Z,19.35
2023-08-12T03:20:35.930Z,19.49
2023-08-12T03:23:02.396Z,19.31
2023-08-12T03:25:28.826Z,19.43
2023-08-12T03:27:55.224Z,19.44
2023-08-12T03:30:21.788Z,19.52
2023-08-12T03:32:48.188Z,19.56
2023-08-12T03:35:15.242Z,19.50
2023-08-12T03:37:42.726Z,19.53
2023-08-12T03:40:09.794Z,19.59
2023-08-12T03:42:36.420Z,19.52
2023-08-12T03:45:03.069Z,19.55
2023-08-12T03:47:29.571Z,19.30
2023-08-12T03:49:56.101Z,19.49
2023-08-12T03:52:30.342Z,19.31
2023-08-12T03:54:59.794Z,19.13
2023-08-12T03:57:26.255Z,19.25
2023-08-12T03:59:52.697Z,19.40
2023-08-12T04:02:19.104Z,19.46
2023-08-12T04:04:45.528Z,19.40
2023-08-12T04:07:37.454Z,19.52
2023-08-12T04:10:02.085Z,19.32
2023-08-12T04:12:28.545Z,19.25
2023-08-12T04:14:54.994Z,19.27
2023-08-12T04:17:24.412Z,19.42
2023-08-12T04:19:50.926Z,19.25
2023-08-12T04:22:17.901Z,19.18
2023-08-12T04:24:44.336Z,19.30
2023-08-12T04:27:16.976Z,19.28
2023-08-12T04:29:43.826Z,19.43
2023-08-12T04:32:10.306Z,19.17
2023-08-12T04:34:36.744Z,19.45
2023-08-12T04:37:03.615Z,19.42
2023-08-12T04:39:34.743Z,19.52
2023-08-12T04:42:01.171Z,19.54
2023-08-12T04:44:32.009Z,19.45
2023-08-12T04:47:03.977Z,19.69
2023-08-12T04:49:33.291Z,19.57
2023-08-12T04:51:59.952Z,19.77
2023-08-12T04:54:26.393Z,19.74
2023-08-12T04:56:58.409Z,19.75
2023-08-12T04:59:27.523Z,19.79
2023-08-12T05:02:04.010Z,19.79
2023-08-12T05:04:31.455Z,19.84
2023-08-12T05:06:57.972Z,19.70
2023-08-12T05:09:24.357Z,19.71
2023-08-12T05:11:50.844Z,19.82
2023-08-12T05:14:17.289Z,19.79
2023-08-12T05:16:43.813Z,19.62
2023-08-12T05:19:10.281Z,19.66
2023-08-12T05:21:36.743Z,19.78
2023-08-12T05:24:03.310Z,19.77
2023-08-12T05:26:29.788Z,19.77
2023-08-12T05:28:56.242Z,19.89
2023-08-12T05:31:23.283Z,19.80
2023-08-12T05:33:49.975Z,19.96
2023-08-12T05:36:16.466Z,19.88
2023-08-12T05:38:42.925Z,20.07
2023-08-12T05:41:09.549Z,20.16
2023-08-12T05:43:36.129Z,20.38
2023-08-12T05:46:02.721Z,20.20
2023-08-12T05:48:29.578Z,20.34
2023-08-12T05:50:56.104Z,20.43
2023-08-12T05:53:23.524Z,20.55
2023-08-12T05:55:49.949Z,20.43
2023-08-12T05:58:16.793Z,20.26
2023-08-12T06:00:46.348Z,20.61
2023-08-12T06:03:13.753Z,20.43
2023-08-12T06:05:42.372Z,20.67
2023-08-12T06:08:08.836Z,21.20
2023-08-12T06:10:37.071Z,21.45
2023-08-12T06:13:05.520Z,22.04
2023-08-12T06:15:32.521Z,22.82
2023-08-12T06:17:59.308Z,22.73
2023-08-12T06:20:26.044Z,22.20
2023-08-12T06:22:53.157Z,22.26
2023-08-12T06:25:20.579Z,22.16
2023-08-12T06:27:48.241Z,22.13
2023-08-12T06:30:15.573Z,22.39
2023-08-12T06:32:42.102Z,22.51
2023-08-12T06:35:08.951Z,23.56
2023-08-12T06:37:35.407Z,24.69
2023-08-12T06:40:01.952Z,23.66
2023-08-12T06:42:28.364Z,23.56
2023-08-12T06:44:57.663Z,23.31
2023-08-12T06:47:24.219Z,22.85
2023-08-12T06:49:50.749Z,22.57
2023-08-12T06:52:17.341Z,22.92
2023-08-12T06:54:43.831Z,22.79
2023-08-12T06:57:12.863Z,22.70
2023-08-12T06:59:39.621Z,22.89
2023-08-12T07:02:07.639Z,23.13
2023-08-12T07:04:34.127Z,22.96
2023-08-12T07:07:00.918Z,22.71
2023-08-12T07:09:27.304Z,22.18
2023-08-12T07:11:53.782Z,22.51
2023-08-12T07:14:20.224Z,22.20
2023-08-12T07:16:46.672Z,22.39
2023-08-12T07:19:15.713Z,22.22
2023-08-12T07:21:45.952Z,22.33
2023-08-12T07:24:12.427Z,23.41
2023-08-12T07:26:38.847Z,24.83
2023-08-12T07:29:05.520Z,23.90
2023-08-12T07:31:32.044Z,23.56
2023-08-12T07:33:58.663Z,23.16
2023-08-12T07:36:25.143Z,23.28
2023-08-12T07:38:51.624Z,23.35
2023-08-12T07:41:18.087Z,23.15
2023-08-12T07:43:44.565Z,23.02
2023-08-12T07:46:11.024Z,22.85
2023-08-12T07:48:39.192Z,22.73
2023-08-12T07:51:06.072Z,22.46
2023-08-12T07:53:32.510Z,22.59
2023-08-12T07:55:58.996Z,22.28
2023-08-12T07:58:25.458Z,22.39
2023-08-12T08:00:55.028Z,22.64
2023-08-12T08:03:21.664Z,22.48
2023-08-12T08:05:48.152Z,22.44
2023-08-12T08:08:14.892Z,22.70
2023-08-12T08:10:41.407Z,22.25
2023-08-12T08:13:07.908Z,22.48
2023-08-12T08:15:34.342Z,22.47
2023-08-12T08:18:02.643Z,22.63
2023-08-12T08:20:29.265Z,22.15
2023-08-12T08:22:56.377Z,22.21
2023-08-12T08:25:23.160Z,22.37
2023-08-12T08:27:50.141Z,22.82
2023-08-12T08:30:16.649Z,22.76
2023-08-12T08:32:43.222Z,22.53
2023-08-12T08:35:09.823Z,22.74
2023-08-12T08:37:36.343Z,22.97
2023-08-12T08:40:03.530Z,23.39
2023-08-12T08:42:30.624Z,24.05
2023-08-12T08:45:01.270Z,24.87
2023-08-12T08:47:28.502Z,25.36
2023-08-12T08:49:57.256Z,24.87
2023-08-12T08:52:27.652Z,24.77
2023-08-12T08:54:54.415Z,24.21
2023-08-12T08:57:24.414Z,24.15
2023-08-12T09:00:16.366Z,24.36
2023-08-12T09:02:45.614Z,25.06
2023-08-12T09:05:13.980Z,24.62
2023-08-12T09:07:41.913Z,24.73
2023-08-12T09:10:09.655Z,24.51
2023-08-12T09:12:37.516Z,24.29
2023-08-12T09:15:05.602Z,24.51
2023-08-12T09:17:33.652Z,24.48
2023-08-12T09:20:00.526Z,24.33
2023-08-12T09:22:27.554Z,24.48
2023-08-12T09:25:00.243Z,24.47
2023-08-12T09:27:26.706Z,24.31
2023-08-12T09:30:00.185Z,23.66
2023-08-12T09:32:26.829Z,23.85
2023-08-12T09:34:54.621Z,23.95
2023-08-12T09:37:23.250Z,23.90
2023-08-12T09:39:53.084Z,23.45
2023-08-12T09:42:22.394Z,23.71
2023-08-12T09:44:48.900Z,23.75
2023-08-12T09:47:15.533Z,24.42
2023-08-12T09:49:42.235Z,24.22
2023-08-12T09:52:10.115Z,24.86
2023-08-12T09:54:37.157Z,24.74
2023-08-12T09:57:07.428Z,24.46
2023-08-12T09:59:38.962Z,25.44
2023-08-12T10:02:08.736Z,26.02
2023-08-12T10:04:42.042Z,27.10
2023-08-12T10:07:13.907Z,26.00
2023-08-12T10:09:41.051Z,25.75
2023-08-12T10:12:08.454Z,25.68
2023-08-12T10:14:35.188Z,25.54
2023-08-12T10:17:06.184Z,25.34
2023-08-12T10:19:37.100Z,25.32
2023-08-12T10:22:04.767Z,25.14
2023-08-12T10:24:32.357Z,25.11
2023-08-12T10:26:58.801Z,25.18
2023-08-12T10:29:26.888Z,24.83
2023-08-12T10:31:53.754Z,24.81
2023-08-12T10:34:24.713Z,24.61
2023-08-12T10:37:02.799Z,24.55
2023-08-12T10:39:33.038Z,23.66
2023-08-12T10:42:00.151Z,23.84
2023-08-12T10:44:55.356Z,23.76
2023-08-12T10:47:21.934Z,23.49
2023-08-12T10:49:54.087Z,23.37
2023-08-12T10:52:34.787Z,23.29
2023-08-12T10:55:24.240Z,22.99
2023-08-12T10:57:55.068Z,22.83
2023-08-12T11:00:28.162Z,22.73
2023-08-12T11:02:57.401Z,22.64
2023-08-12T11:05:25.100Z,22.75
2023-08-12T11:07:59.686Z,22.61
2023-08-12T11:10:27.958Z,22.73
2023-08-12T11:12:57.417Z,22.74
2023-08-12T11:15:43.090Z,22.50
2023-08-12T11:18:20.703Z,21.95
2023-08-12T11:20:51.000Z,22.17
2023-08-12T11:23:18.226Z,22.27
2023-08-12T11:25:46.029Z,22.13
2023-08-12T11:28:12.759Z,22.57
2023-08-12T11:30:43.383Z,23.13
2023-08-12T11:33:10.496Z,23.85
2023-08-12T11:35:38.848Z,24.66
2023-08-12T11:38:06.501Z,25.62
2023-08-12T11:40:32.972Z,25.52
2023-08-12T11:42:59.367Z,25.28
2023-08-12T11:45:28.301Z,25.53
2023-08-12T11:47:55.788Z,25.95
2023-08-12T11:50:27.459Z,26.76
2023-08-12T11:52:56.158Z,26.64
2023-08-12T11:55:23.117Z,26.96
2023-08-12T11:57:51.835Z,26.08
2023-08-12T12:00:19.766Z,26.49
2023-08-12T12:02:51.610Z,25.61
2023-08-12T12:05:23.653Z,25.86
2023-08-12T12:07:51.222Z,25.78
2023-08-12T12:10:31.013Z,25.97
2023-08-12T12:13:01.004Z,25.39
2023-08-12T12:15:27.481Z,25.59
2023-08-12T12:17:59.345Z,25.78
2023-08-12T12:20:28.056Z,25.63
2023-08-12T12:22:54.768Z,25.43
2023-08-12T12:25:22.825Z,25.38
2023-08-12T12:27:49.373Z,25.48
2023-08-12T12:30:17.175Z,25.15
2023-08-12T12:32:44.139Z,24.71
2023-08-12T12:35:10.602Z,25.05
2023-08-12T12:37:40.397Z,25.46
2023-08-12T12:40:08.382Z,25.42
2023-08-12T12:42:34.902Z,25.84
2023-08-12T12:45:01.356Z,25.67
2023-08-12T12:47:27.906Z,25.72
2023-08-12T12:49:54.313Z,27.49
2023-08-12T12:52:20.789Z,28.35
2023-08-12T12:54:53.280Z,29.01
2023-08-12T12:57:19.720Z,29.13
2023-08-12T12:59:46.143Z,29.53
2023-08-12T13:02:12.872Z,29.43
2023-08-12T13:04:39.613Z,31.07
2023-08-12T13:07:06.124Z,30.50
2023-08-12T13:09:45.652Z,30.59
2023-08-12T13:12:12.260Z,31.95
2023-08-12T13:14:38.984Z,33.28
2023-08-12T13:17:05.424Z,32.27
2023-08-12T13:19:31.831Z,31.05
2023-08-12T13:21:58.280Z,30.26
2023-08-12T13:24:37.930Z,32.05
2023-08-12T13:27:04.823Z,33.54
2023-08-12T13:29:33.000Z,32.08
2023-08-12T13:31:59.483Z,33.04
2023-08-12T13:34:25.927Z,31.69
2023-08-12T13:36:52.321Z,33.10
2023-08-12T13:39:18.926Z,32.49
2023-08-12T13:41:45.341Z,31.34
2023-08-12T13:44:11.794Z,29.28
2023-08-12T13:46:38.200Z,27.96
2023-08-12T13:49:04.659Z,27.82
2023-08-12T13:51:31.796Z,28.14
2023-08-12T13:53:58.306Z,28.19
2023-08-12T13:56:24.770Z,27.16
2023-08-12T13:58:51.198Z,27.12
2023-08-12T14:01:17.633Z,28.78
2023-08-12T14:03:44.072Z,30.63
2023-08-12T14:06:10.548Z,30.12
2023-08-12T14:08:37.051Z,30.85
2023-08-12T14:11:03.468Z,31.05
2023-08-12T14:13:29.893Z,30.62
2023-08-12T14:15:56.418Z,30.82
2023-08-12T14:18:22.951Z,30.36
2023-08-12T14:20:49.443Z,30.33
2023-08-12T14:23:15.856Z,31.09
2023-08-12T14:25:42.299Z,30.81
2023-08-12T14:28:08.676Z,30.41
2023-08-12T14:30:35.198Z,28.46
2023-08-12T14:33:01.750Z,27.82
2023-08-12T14:35:28.266Z,28.01
2023-08-12T14:37:54.719Z,27.64
2023-08-12T14:40:21.165Z,27.15
2023-08-12T14:42:47.592Z,28.92
2023-08-12T14:45:14.111Z,28.35
2023-08-12T14:47:40.634Z,29.40
2023-08-12T14:50:07.510Z,28.53
2023-08-12T14:52:33.924Z,27.50
2023-08-12T14:55:03.263Z,27.27
2023-08-12T14:57:29.716Z,27.70
2023-08-12T14:59:56.100Z,29.04
2023-08-12T15:02:25.519Z,30.36
2023-08-12T15:04:52.181Z,30.77
2023-08-12T15:07:19.797Z,28.09
2023-08-12T15:09:46.584Z,27.69
2023-08-12T15:12:13.151Z,27.46
2023-08-12T15:14:39.730Z,26.39
2023-08-12T15:17:06.252Z,26.74
2023-08-12T15:19:32.651Z,26.34
2023-08-12T15:21:59.107Z,26.37
2023-08-12T15:24:25.622Z,26.16
2023-08-12T15:26:52.130Z,25.82
2023-08-12T15:29:18.687Z,25.58
2023-08-12T15:31:45.197Z,26.34
2023-08-12T15:34:11.630Z,26.63
2023-08-12T15:36:41.981Z,27.09
2023-08-12T15:39:09.139Z,26.67
2023-08-12T15:41:42.061Z,25.92
2023-08-12T15:44:08.484Z,25.29
2023-08-12T15:46:41.006Z,25.41
2023-08-12T15:49:11.661Z,25.26
2023-08-12T15:51:39.088Z,25.30
2023-08-12T15:54:06.192Z,25.25
2023-08-12T15:56:35.908Z,24.94
2023-08-12T15:59:03.431Z,25.14
2023-08-12T16:01:31.883Z,25.07
2023-08-12T16:03:59.271Z,24.99
2023-08-12T16:06:26.025Z,24.77
2023-08-12T16:09:09.980Z,25.03
2023-08-12T16:11:39.210Z,25.01
2023-08-12T16:14:05.635Z,24.97
2023-08-12T16:16:32.311Z,24.84
2023-08-12T16:18:58.842Z,24.93
2023-08-12T16:21:25.794Z,25.19
2023-08-12T16:23:52.490Z,24.93
2023-08-12T16:26:20.879Z,25.16
2023-08-12T16:28:48.568Z,24.96
2023-08-12T16:31:15.073Z,24.82
2023-08-12T16:33:44.762Z,24.98
2023-08-12T16:36:11.233Z,24.76
2023-08-12T16:38:37.679Z,24.62
2023-08-12T16:41:04.774Z,24.58
2023-08-12T16:43:31.360Z,24.44
2023-08-12T16:45:57.904Z,24.53
2023-08-12T16:48:24.376Z,24.54
2023-08-12T16:50:51.258Z,24.55
2023-08-12T16:53:17.741Z,24.53
2023-08-12T16:55:44.186Z,24.55
2023-08-12T16:58:10.632Z,24.46
2023-08-12T17:00:37.032Z,24.40
2023-08-12T17:03:03.736Z,24.52
2023-08-12T17:05:30.206Z,24.60
2023-08-12T17:07:56.612Z,24.66
2023-08-12T17:10:23.717Z,24.78
2023-08-12T17:12:50.215Z,24.75
2023-08-12T17:15:16.715Z,24.62
2023-08-12T17:17:43.226Z,24.57
2023-08-12T17:20:10.024Z,24.29
2023-08-12T17:22:36.538Z,24.11
2023-08-12T17:25:05.985Z,24.06
2023-08-12T17:27:33.201Z,24.14
2023-08-12T17:29:59.661Z,24.02
2023-08-12T17:32:26.252Z,23.92
2023-08-12T17:34:53.027Z,24.05
2023-08-12T17:37:23.571Z,24.23
2023-08-12T17:39:50.204Z,23.89
2023-08-12T17:42:16.585Z,23.80
2023-08-12T17:44:43.025Z,23.29
2023-08-12T17:47:09.525Z,23.18
2023-08-12T17:49:35.943Z,23.13
2023-08-12T17:52:02.498Z,23.22
2023-08-12T17:54:30.439Z,23.21
2023-08-12T17:56:56.895Z,23.17
2023-08-12T17:59:23.355Z,23.16
2023-08-12T18:01:49.873Z,23.23
2023-08-12T18:04:16.302Z,23.13
2023-08-12T18:06:42.739Z,23.14
2023-08-12T18:09:10.494Z,23.11
2023-08-12T18:11:37.049Z,22.91
2023-08-12T18:14:03.591Z,22.97
2023-08-12T18:16:30.177Z,22.84
2023-08-12T18:18:56.692Z,22.94
2023-08-12T18:21:23.071Z,22.74
2023-08-12T18:23:49.545Z,22.83
2023-08-12T18:26:15.975Z,22.86
2023-08-12T18:28:42.537Z,22.65
2023-08-12T18:31:09.453Z,22.57
2023-08-12T18:33:35.987Z,22.51
2023-08-12T18:36:02.410Z,22.59
2023-08-12T18:38:28.854Z,22.43
2023-08-12T18:40:55.331Z,22.39
2023-08-12T18:43:21.815Z,22.42
2023-08-12T18:45:48.312Z,22.44
2023-08-12T18:48:14.876Z,22.32
2023-08-12T18:50:41.405Z,22.25
2023-08-12T18:53:07.848Z,22.23
2023-08-12T18:55:34.425Z,22.22
2023-08-12T18:58:00.861Z,22.15
2023-08-12T19:00:27.483Z,22.03
2023-08-12T19:02:54.006Z,21.90
2023-08-12T19:05:20.497Z,21.75
2023-08-12T19:07:46.938Z,21.52
2023-08-12T19:10:13.397Z,21.50
2023-08-12T19:12:39.896Z,21.50
2023-08-12T19:15:06.847Z,21.39
2023-08-12T19:17:33.357Z,21.20
2023-08-12T19:19:59.863Z,21.07
2023-08-12T19:22:26.349Z,21.18
2023-08-12T19:24:52.868Z,21.10
2023-08-12T19:27:22.168Z,21.07
2023-08-12T19:29:48.562Z,20.63
2023-08-12T19:32:15.273Z,20.61
2023-08-12T19:34:41.919Z,20.61
2023-08-12T19:37:08.562Z,20.44
2023-08-12T19:39:35.035Z,20.39
2023-08-12T19:42:02.752Z,20.28
2023-08-12T19:44:31.498Z,20.16
2023-08-12T19:46:58.188Z,20.18
2023-08-12T19:49:25.358Z,20.09
2023-08-12T19:51:51.878Z,20.09
2023-08-12T19:54:18.302Z,20.07
2023-08-12T19:56:44.780Z,20.10
2023-08-12T19:59:13.372Z,20.07
2023-08-12T20:01:43.194Z,19.99
2023-08-12T20:04:09.654Z,19.69
2023-08-12T20:06:36.438Z,19.58
2023-08-12T20:09:03.087Z,19.57
2023-08-12T20:11:29.602Z,19.52
2023-08-12T20:13:56.139Z,19.48
2023-08-12T20:16:22.607Z,19.49
2023-08-12T20:18:49.926Z,19.47
2023-08-12T20:21:16.365Z,19.52
2023-08-12T20:23:42.944Z,19.35
2023-08-12T20:26:10.952Z,19.54
2023-08-12T20:28:37.460Z,19.59
2023-08-12T20:31:03.875Z,19.55
2023-08-12T20:33:33.142Z,19.42
2023-08-12T20:35:59.806Z,19.35
2023-08-12T20:38:26.221Z,19.34
2023-08-12T20:40:52.683Z,19.27
2023-08-12T20:43:19.092Z,18.87
2023-08-12T20:45:45.541Z,18.71
2023-08-12T20:48:12.198Z,18.68
2023-08-12T20:50:38.701Z,18.66
2023-08-12T20:53:08.028Z,18.81
2023-08-12T20:55:34.598Z,18.89
2023-08-12T20:58:01.111Z,18.99
2023-08-12T21:00:27.912Z,18.97
2023-08-12T21:02:54.462Z,18.96
2023-08-12T21:05:21.045Z,19.08
2023-08-12T21:07:47.537Z,19.11
2023-08-12T21:10:14.093Z,19.00
2023-08-12T21:12:40.610Z,19.03
2023-08-12T21:15:07.649Z,19.03
2023-08-12T21:17:34.327Z,18.84
2023-08-12T21:20:00.811Z,18.73
2023-08-12T21:22:27.326Z,18.68
2023-08-12T21:24:53.821Z,18.48
2023-08-12T21:27:20.375Z,18.71
2023-08-12T21:29:46.872Z,18.67
2023-08-12T21:32:13.658Z,18.65
2023-08-12T21:34:40.235Z,18.75
2023-08-12T21:37:06.755Z,18.72
2023-08-12T21:39:33.157Z,18.65
2023-08-12T21:41:59.627Z,18.63
2023-08-12T21:44:26.102Z,18.70
2023-08-12T21:46:52.516Z,18.59
2023-08-12T21:49:18.965Z,18.46
2023-08-12T21:51:45.859Z,18.46
2023-08-12T21:54:12.388Z,18.58
2023-08-12T21:56:38.870Z,18.67
2023-08-12T21:59:05.312Z,18.69
2023-08-12T22:01:31.926Z,18.70
2023-08-12T22:03:58.435Z,18.74
2023-08-12T22:06:24.825Z,18.85
2023-08-12T22:08:51.295Z,18.74
2023-08-12T22:11:17.906Z,18.68
2023-08-12T22:13:44.321Z,18.41
2023-08-12T22:16:10.832Z,18.63
2023-08-12T22:18:37.674Z,18.68
2023-08-12T22:21:04.762Z,18.50
2023-08-12T22:23:31.336Z,18.55
2023-08-12T22:25:57.771Z,18.55
2023-08-12T22:28:24.157Z,18.73
2023-08-12T22:30:53.172Z,18.87
2023-08-12T22:33:19.849Z,18.89
2023-08-12T22:35:46.560Z,18.95
2023-08-12T22:38:13.264Z,18.94
2023-08-12T22:40:39.702Z,19.07
2023-08-12T22:43:06.172Z,19.02
2023-08-12T22:45:44.254Z,18.95
2023-08-12T22:48:10.889Z,18.79
2023-08-12T22:50:37.901Z,18.68
2023-08-12T22:53:04.611Z,18.35
2023-08-12T22:55:31.165Z,18.53
2023-08-12T22:57:57.780Z,18.47
2023-08-12T23:00:24.501Z,18.35
2023-08-12T23:02:51.118Z,18.46
2023-08-12T23:05:17.663Z,18.36
2023-08-12T23:07:44.173Z,18.41
2023-08-12T23:10:11.196Z,18.33
2023-08-12T23:12:37.843Z,18.20
2023-08-12T23:15:04.910Z,18.24
2023-08-12T23:17:31.430Z,18.32
2023-08-12T23:19:57.870Z,18.37
2023-08-12T23:22:24.367Z,18.23
2023-08-12T23:24:50.851Z,18.33
2023-08-12T23:27:17.283Z,18.32
2023-08-12T23:29:43.739Z,18.34
2023-08-12T23:32:10.454Z,18.15
2023-08-12T23:34:36.848Z,18.06
2023-08-12T23:37:03.313Z,18.01
2023-08-12T23:39:31.659Z,17.82
2023-08-12T23:41:58.576Z,17.67
2023-08-12T23:44:25.025Z,17.64
2023-08-12T23:46:51.479Z,17.69
2023-08-12T23:49:17.925Z,17.59
2023-08-12T23:51:44.346Z,17.58
2023-08-12T23:54:11.119Z,17.65
2023-08-12T23:56:37.727Z,17.55
2023-08-12T23:59:04.727Z,17.59
